createdAt,value
2022-10-07T00:01:12.739Z,8.69
2022-10-07T00:06:17.942Z,8.63
2022-10-07T00:11:23.936Z,8.59
2022-10-07T00:16:36.695Z,8.58
2022-10-07T00:21:40.387Z,8.61
2022-10-07T00:26:42.870Z,8.62
2022-10-07T00:31:45.375Z,8.62
2022-10-07T00:36:50.526Z,8.58
2022-10-07T00:41:53.025Z,8.54
2022-10-07T00:46:56.548Z,8.52
2022-10-07T00:51:59.147Z,8.49
2022-10-07T00:57:01.654Z,8.47
2022-10-07T01:02:04.354Z,8.41
2022-10-07T01:07:06.930Z,8.33
2022-10-07T01:12:22.865Z,8.26
2022-10-07T01:17:28.337Z,8.20
2022-10-07T01:22:53.432Z,8.13
2022-10-07T01:28:04.002Z,8.06
2022-10-07T01:33:13.508Z,8.02
2022-10-07T01:38:19.875Z,8.00
2022-10-07T01:43:23.510Z,7.95
2022-10-07T01:48:25.998Z,7.91
2022-10-07T01:53:34.962Z,7.85
2022-10-07T01:58:56.161Z,7.81
2022-10-07T02:04:10.474Z,7.77
2022-10-07T02:09:25.393Z,7.73
2022-10-07T02:14:45.126Z,7.70
2022-10-07T02:19:53.298Z,7.69
2022-10-07T02:24:59.162Z,7.68
2022-10-07T02:30:10.253Z,7.65
2022-10-07T02:35:19.515Z,7.63
2022-10-07T02:40:28.669Z,7.59
2022-10-07T02:45:41.046Z,7.55
2022-10-07T02:50:47.615Z,7.53
2022-10-07T02:55:53.207Z,7.52
2022-10-07T03:00:59.655Z,7.51
2022-10-07T03:06:02.160Z,7.49
2022-10-07T03:11:04.577Z,7.47
2022-10-07T03:16:07.028Z,7.42
2022-10-07T03:21:09.737Z,7.38
2022-10-07T03:26:12.226Z,7.37
2022-10-07T03:31:15.621Z,7.35
2022-10-07T03:36:19.280Z,7.34
2022-10-07T03:41:22.337Z,7.36
2022-10-07T03:46:25.335Z,7.36
2022-10-07T03:51:28.310Z,7.35
2022-10-07T03:56:30.826Z,7.34
2022-10-07T04:01:33.421Z,7.34
2022-10-07T04:06:38.891Z,7.34
2022-10-07T04:11:41.982Z,7.34
2022-10-07T04:16:44.514Z,7.31
2022-10-07T04:21:47.099Z,7.28
2022-10-07T04:26:50.052Z,7.26
2022-10-07T04:31:52.769Z,7.24
2022-10-07T04:36:55.393Z,7.21
2022-10-07T04:41:57.811Z,7.19
2022-10-07T04:47:00.459Z,7.17
2022-10-07T04:52:03.065Z,7.16
2022-10-07T04:57:05.851Z,7.14
2022-10-07T05:02:08.585Z,7.12
2022-10-07T05:07:12.279Z,7.12
2022-10-07T05:12:17.730Z,7.14
2022-10-07T05:17:20.319Z,7.17
2022-10-07T05:22:22.725Z,7.20
2022-10-07T05:27:25.684Z,7.24
2022-10-07T05:32:28.178Z,7.29
2022-10-07T05:37:32.330Z,7.37
2022-10-07T05:42:34.900Z,7.47
2022-10-07T05:47:37.648Z,7.57
2022-10-07T05:52:40.338Z,7.68
2022-10-07T05:57:43.230Z,7.79
2022-10-07T06:02:46.249Z,7.92
2022-10-07T06:07:48.820Z,8.12
2022-10-07T06:13:10.128Z,8.40
2022-10-07T06:18:13.480Z,8.72
2022-10-07T06:23:16.404Z,9.01
2022-10-07T06:28:19.309Z,9.26
2022-10-07T06:34:12.262Z,9.69
2022-10-07T06:39:15.894Z,10.03
2022-10-07T06:44:16.965Z,10.41
2022-10-07T06:49:17.876Z,10.81
2022-10-07T06:54:18.930Z,11.16
2022-10-07T06:59:20.068Z,11.53
2022-10-07T07:04:21.074Z,11.93
2022-10-07T07:09:22.237Z,12.33
2022-10-07T07:14:25.073Z,12.65
2022-10-07T07:19:26.105Z,12.96
2022-10-07T07:24:27.286Z,13.29
2022-10-07T07:29:28.671Z,13.63
2022-10-07T07:34:30.474Z,13.99
2022-10-07T07:39:31.584Z,14.35
2022-10-07T07:44:34.906Z,14.66
2022-10-07T07:49:36.331Z,14.94
2022-10-07T07:54:38.951Z,15.19
2022-10-07T07:59:40.054Z,15.41
2022-10-07T08:04:41.390Z,15.64
2022-10-07T08:09:43.211Z,15.78
2022-10-07T08:14:44.549Z,15.82
2022-10-07T08:19:45.622Z,15.81
2022-10-07T08:24:47.463Z,15.82
2022-10-07T08:29:48.775Z,15.87
2022-10-07T08:34:50.282Z,15.91
2022-10-07T08:39:51.311Z,15.96
2022-10-07T08:44:52.921Z,16.01
2022-10-07T08:50:03.121Z,16.07
2022-10-07T08:55:43.493Z,16.16
2022-10-07T09:01:10.218Z,16.28
2022-10-07T09:06:16.188Z,16.43
2022-10-07T09:11:24.869Z,16.33
2022-10-07T09:16:37.750Z,16.24
2022-10-07T09:21:44.699Z,16.18
2022-10-07T09:26:46.644Z,16.20
2022-10-07T09:31:48.667Z,16.20
2022-10-07T09:37:27.354Z,16.23
2022-10-07T09:42:37.414Z,16.32
2022-10-07T09:48:16.046Z,16.34
2022-10-07T09:53:28.187Z,16.41
2022-10-07T09:58:30.954Z,16.46
2022-10-07T10:03:37.678Z,16.46
2022-10-07T10:08:43.762Z,16.44
2022-10-07T10:13:49.791Z,16.46
2022-10-07T10:18:59.041Z,16.50
2022-10-07T10:24:11.600Z,16.48
2022-10-07T10:29:33.073Z,16.49
2022-10-07T10:35:00.217Z,16.57
2022-10-07T10:40:19.342Z,16.64
2022-10-07T10:45:40.708Z,16.68
2022-10-07T10:51:31.368Z,16.77
2022-10-07T10:56:55.215Z,16.79
2022-10-07T11:02:16.024Z,16.80
2022-10-07T11:07:24.841Z,16.83
2022-10-07T11:12:37.278Z,16.80
2022-10-07T11:17:40.492Z,16.82
2022-10-07T11:22:50.704Z,16.88
2022-10-07T11:28:00.757Z,16.97
2022-10-07T11:33:10.002Z,17.02
2022-10-07T11:38:15.203Z,17.10
2022-10-07T11:43:41.570Z,17.14
2022-10-07T11:48:44.693Z,17.19
2022-10-07T11:53:47.466Z,17.24
2022-10-07T11:59:02.475Z,17.34
2022-10-07T12:04:24.920Z,17.34
2022-10-07T12:09:52.202Z,17.31
2022-10-07T12:15:00.587Z,17.29
2022-10-07T12:20:49.518Z,17.29
2022-10-07T12:25:56.970Z,17.31
2022-10-07T12:31:01.940Z,17.33
2022-10-07T12:36:23.761Z,17.38
2022-10-07T12:41:29.049Z,17.45
2022-10-07T12:47:01.269Z,17.48
2022-10-07T12:52:27.296Z,17.51
2022-10-07T12:57:35.176Z,17.49
2022-10-07T13:03:05.321Z,17.49
2022-10-07T13:08:40.160Z,17.56
2022-10-07T13:14:20.356Z,17.61
2022-10-07T13:19:43.581Z,17.60
2022-10-07T13:24:57.060Z,17.62
2022-10-07T13:30:01.763Z,17.60
2022-10-07T13:35:33.210Z,17.52
2022-10-07T13:40:39.216Z,17.44
2022-10-07T13:45:45.009Z,17.47
2022-10-07T13:50:50.807Z,17.48
2022-10-07T13:56:14.951Z,17.52
2022-10-07T14:01:17.544Z,17.53
2022-10-07T14:06:38.781Z,17.54
2022-10-07T14:11:43.176Z,17.59
2022-10-07T14:16:51.743Z,17.57
2022-10-07T14:21:54.341Z,17.48
2022-10-07T14:26:57.385Z,17.40
2022-10-07T14:32:40.741Z,17.28
2022-10-07T14:37:43.285Z,17.15
2022-10-07T14:42:46.894Z,17.05
2022-10-07T14:47:49.759Z,16.94
2022-10-07T14:52:52.993Z,16.81
2022-10-07T14:57:55.849Z,16.65
2022-10-07T15:02:58.431Z,16.47
2022-10-07T15:08:01.333Z,16.32
2022-10-07T15:13:08.710Z,16.18
2022-10-07T15:18:14.894Z,16.36
2022-10-07T15:23:17.327Z,16.92
2022-10-07T15:28:19.838Z,16.69
2022-10-07T15:33:23.316Z,16.30
2022-10-07T15:38:26.972Z,15.90
2022-10-07T15:43:29.783Z,15.52
2022-10-07T15:48:32.324Z,15.15
2022-10-07T15:53:34.901Z,14.78
2022-10-07T15:58:37.903Z,14.46
2022-10-07T16:03:44.029Z,14.14
2022-10-07T16:08:48.219Z,13.79
2022-10-07T16:13:51.367Z,13.48
2022-10-07T16:18:56.868Z,13.20
2022-10-07T16:24:08.570Z,12.94
2022-10-07T16:29:34.663Z,12.72
2022-10-07T16:34:41.914Z,12.54
2022-10-07T16:39:44.380Z,12.42
2022-10-07T16:44:50.639Z,12.36
2022-10-07T16:49:53.297Z,12.27
2022-10-07T16:54:56.821Z,12.15
2022-10-07T16:59:59.615Z,11.98
2022-10-07T17:05:02.337Z,11.79
2022-10-07T17:10:06.644Z,11.61
2022-10-07T17:15:10.148Z,11.43
2022-10-07T17:20:13.013Z,11.26
2022-10-07T17:25:15.714Z,11.12
2022-10-07T17:30:18.944Z,10.98
2022-10-07T17:35:24.065Z,10.87
2022-10-07T17:40:31.436Z,10.76
2022-10-07T17:50:53.260Z,10.63
2022-10-07T17:55:56.032Z,10.55
2022-10-07T18:01:04.105Z,10.46
2022-10-07T18:06:09.146Z,10.32
2022-10-07T18:11:11.726Z,10.20
2022-10-07T18:16:14.548Z,10.08
2022-10-07T18:21:17.180Z,9.97
2022-10-07T18:26:20.072Z,9.88
2022-10-07T18:31:22.564Z,9.84
2022-10-07T18:36:25.256Z,9.81
2022-10-07T18:41:27.726Z,9.81
2022-10-07T18:46:30.196Z,9.80
2022-10-07T18:51:32.659Z,9.79
2022-10-07T18:56:40.615Z,9.74
2022-10-07T19:01:50.084Z,9.67
2022-10-07T19:06:53.243Z,9.59
2022-10-07T19:11:55.743Z,9.52
2022-10-07T19:16:59.848Z,9.43
2022-10-07T19:22:02.565Z,9.37
2022-10-07T19:27:04.978Z,9.33
2022-10-07T19:32:08.816Z,9.31
2022-10-07T19:37:11.618Z,9.30
2022-10-07T19:42:14.155Z,9.27
2022-10-07T19:47:19.720Z,9.24
2022-10-07T19:52:22.275Z,9.20
2022-10-07T19:57:24.797Z,9.16
2022-10-07T20:02:27.704Z,9.13
2022-10-07T20:07:30.224Z,9.11
2022-10-07T20:12:32.634Z,9.10
2022-10-07T20:17:35.217Z,9.10
2022-10-07T20:22:37.986Z,9.10
2022-10-07T20:27:40.388Z,9.09
2022-10-07T20:32:43.792Z,9.04
2022-10-07T20:37:46.625Z,8.96
2022-10-07T20:42:49.563Z,8.87
2022-10-07T20:47:55.121Z,8.83
2022-10-07T20:52:57.801Z,8.85
2022-10-07T20:58:00.414Z,8.87
2022-10-07T21:03:02.911Z,8.91
2022-10-07T21:08:06.608Z,8.94
2022-10-07T21:13:09.048Z,8.97
2022-10-07T21:18:12.020Z,9.01
2022-10-07T21:23:14.409Z,9.03
2022-10-07T21:28:17.993Z,9.01
2022-10-07T21:33:20.593Z,8.94
2022-10-07T21:38:23.005Z,8.88
2022-10-07T21:43:25.806Z,8.84
2022-10-07T21:48:29.447Z,8.82
2022-10-07T21:53:33.971Z,8.79
2022-10-07T21:58:36.880Z,8.75
2022-10-07T22:03:39.629Z,8.72
2022-10-07T22:08:44.933Z,8.72
2022-10-07T22:13:51.618Z,8.78
2022-10-07T22:18:54.557Z,8.83
2022-10-07T22:23:59.723Z,8.91
2022-10-07T22:29:02.132Z,9.05
2022-10-07T22:34:06.179Z,9.17
2022-10-07T22:39:08.683Z,9.27
2022-10-07T22:44:11.078Z,9.35
2022-10-07T22:49:14.887Z,9.43
2022-10-07T22:54:17.857Z,9.54
2022-10-07T22:59:21.126Z,9.62
2022-10-07T23:04:24.064Z,9.73
2022-10-07T23:09:26.493Z,9.83
2022-10-07T23:14:28.880Z,9.91
2022-10-07T23:19:31.330Z,9.98
2022-10-07T23:24:33.717Z,10.00
2022-10-07T23:29:36.099Z,9.99
2022-10-07T23:34:38.481Z,9.97
2022-10-07T23:39:40.992Z,9.99
2022-10-07T23:44:44.206Z,10.04
2022-10-07T23:49:46.630Z,10.12
2022-10-07T23:54:49.074Z,10.22
2022-10-07T23:59:51.525Z,10.33
